Shkoder, Albania
Current Conditions -  °F | °C
As of 4:00 AM on Tuesday 25 Nov 2014 (Local Time) from LYPG Reporting Station
Clear Clear  
Wind Chill: 33°   Ceiling: Unl
Heat Index: 37°   Visibility: 5mi
Dew Point: 37°   Wind: 6mph
Humidity: 100%   Direction: 10°N
Pressure: 30.21"   Gusts: NA
Location:  42.07°N, 19.51°E
Report Text: LYPG 250200Z 01005KT 8000 NSC 03/03 Q1023 NOSIG
Loading
Personal Weather Stations






























Interactive Weather Map New forecast layout! Learn more

10-Day Weather Forecast

Advertisements
Track Severe Weather on mobile